ADDS METAR Data INFO
IDs: Format: Raw Decoded Include TAF

Data at: 1004 UTC 12 Dec 2017

KCGS 120946Z AUTO 20003KT 10SM SCT120 06/M01 A2966 RMK AO1 T00551012
KCGS 120926Z AUTO 19003KT 10SM SCT120 05/M01 A2967 RMK AO1 T00521011
KCGS 120906Z AUTO 00000KT 10SM SCT120 04/M01 A2969 RMK AO1 T00411006
KCGS 120846Z AUTO 00000KT 10SM CLR 03/00 A2969 RMK AO1 T00341005
KCGS 120826Z AUTO 00000KT 10SM SCT120 04/M01 A2971 RMK AO1 T00391006
KCGS 120806Z AUTO 00000KT 10SM CLR 04/M01 A2972 RMK AO1 T00401006
KCGS 120746Z AUTO 00000KT 10SM CLR 04/M01 A2974 RMK AO1 T00401007
KCGS 120726Z AUTO 16003KT 10SM CLR 04/M01 A2975 RMK AO1 T00401007
KCGS 120706Z AUTO 16003KT 10SM CLR 04/M01 A2976 RMK AO1 T00401008
KCGS 120646Z AUTO 17005KT 10SM CLR 04/M01 A2978 RMK AO1 T00401010
KCGS 120626Z AUTO 15003KT 10SM CLR 04/M01 A2979 RMK AO1 T00411010
KCGS 120606Z AUTO 15004KT 10SM CLR 04/M01 A2980 RMK AO1 T00411010
KCGS 120546Z AUTO 15003KT 10SM CLR 04/M01 A2982 RMK AO1 T00431010
KCGS 120526Z AUTO 16005KT 10SM CLR 04/M01 A2984 RMK AO1 T00431010
KCGS 120506Z AUTO 16006KT 10SM CLR 04/M01 A2983 RMK AO1 T00431011
KCGS 120446Z AUTO 17004KT 10SM CLR 04/M01 A2985 RMK AO1 T00431011
KCGS 120426Z AUTO 15004KT 10SM CLR 04/M01 A2986 RMK AO1 T00431012
KCGS 120406Z AUTO 18003KT 10SM CLR 04/M01 A2988 RMK AO1 T00431012
KCGS 120346Z AUTO 16003KT 10SM CLR 04/M01 A2989 RMK AO1 T00421014
KCGS 120326Z AUTO 00000KT 10SM CLR 04/M01 A2990 RMK AO1 T00411015
KCGS 120306Z AUTO 17004KT 10SM CLR 04/M01 A2991 RMK AO1 T00411015
KCGS 120246Z AUTO 17004KT 10SM CLR 04/M01 A2992 RMK AO1 T00411015
KCGS 120226Z AUTO 00000KT 10SM CLR 02/M02 A2993 RMK AO1 T00241019
KCGS 120206Z AUTO 00000KT 10SM CLR 01/M02 A2994 RMK AO1 T00101023
KCGS 120146Z AUTO 00000KT 10SM CLR 03/M03 A2994 RMK AO1 T00271026
KCGS 120126Z AUTO 00000KT 10SM CLR 03/M03 A2995 RMK AO1 T00261030
KCGS 120106Z AUTO 00000KT 10SM CLR 02/M03 A2995 RMK AO1 T00221029
KCGS 120046Z AUTO 00000KT 10SM CLR 02/M03 A2996 RMK AO1 T00241032
KCGS 120026Z AUTO 00000KT 10SM CLR 02/M03 A2996 RMK AO1 T00161033
KCGS 120006Z AUTO 00000KT 10SM CLR 04/M03 A2997 RMK AO1 T00391035
KCGS 112346Z AUTO 00000KT 10SM CLR 05/M03 A2996 RMK AO1 T00461035
KCGS 112326Z AUTO 00000KT 10SM CLR 05/M03 A2996 RMK AO1 T00461035
KCGS 112306Z AUTO 13004KT 10SM CLR 05/M04 A2996 RMK AO1 T00491036
KCGS 112246Z AUTO 13004KT 10SM CLR 05/M04 A2996 RMK AO1 T00521038
KCGS 112226Z AUTO 00000KT 10SM CLR 05/M04 A2996 RMK AO1 T00451039
KCGS 112206Z AUTO 00000KT 10SM CLR 06/M05 A2997 RMK AO1 T00581046
KCGS 112146Z AUTO 00000KT 10SM CLR 07/M05 A2998 RMK AO1 T00731050
KCGS 112126Z AUTO 17004KT 10SM CLR 08/M05 A2999 RMK AO1 T00761049
KCGS 112106Z AUTO 00000KT 10SM CLR 08/M05 A2999 RMK AO1 T00811050
KCGS 112046Z AUTO 19003KT 10SM CLR 08/M05 A2999 RMK AO1 T00811055
KCGS 112026Z AUTO 18004KT 10SM CLR 08/M05 A2998 RMK AO1 T00821054
KCGS 112006Z AUTO 15003KT 10SM CLR 08/M05 A2998 RMK AO1 T00831054
KCGS 111946Z AUTO 25004KT 10SM CLR 08/M05 A2999 RMK AO1 T00821054
KCGS 111926Z AUTO 00000KT 10SM CLR 08/M05 A2999 RMK AO1 T00841053
KCGS 111906Z AUTO 00000KT 10SM CLR 08/M05 A2999 RMK AO1 T00801052
KCGS 111846Z AUTO 00000KT 10SM CLR 08/M05 A2999 RMK AO1 T00781055
KCGS 111826Z AUTO 30006KT 10SM CLR 08/M05 A2999 RMK AO1 T00791051
KCGS 111806Z AUTO 27008KT 10SM CLR 08/M05 A3002 RMK AO1 T00751051
KCGS 111746Z AUTO 26004KT 10SM CLR 08/M05 A3003 RMK AO1 T00761050
KCGS 111726Z AUTO 17004KT 10SM CLR 07/M05 A3004 RMK AO1 T00721049
KCGS 111706Z AUTO 21005KT 10SM CLR 07/M05 A3005 RMK AO1 T00691052
KCGS 111646Z AUTO 27006KT 10SM CLR 07/M05 A3006 RMK AO1 T00711048
KCGS 111626Z AUTO 29006KT 10SM CLR 07/M05 A3008 RMK AO1 T00661051
KCGS 111606Z AUTO 31004KT 10SM CLR 07/M05 A3009 RMK AO1 T00661046
KCGS 111546Z AUTO 29007KT 10SM CLR 06/M05 A3009 RMK AO1 T00621053
KCGS 111526Z AUTO 28006KT 10SM CLR 06/M04 A3010 RMK AO1 T00621045
KCGS 111506Z AUTO 00000KT 10SM CLR 06/M04 A3010 RMK AO1 T00561041
KCGS 111446Z AUTO 00000KT 10SM CLR 05/M02 A3009 RMK AO1 T00491020
KCGS 111426Z AUTO 00000KT 10SM CLR 04/M02 A3008 RMK AO1 T00401024
KCGS 111406Z AUTO 00000KT 10SM CLR 04/M02 A3008 RMK AO1 T00351024
KCGS 111346Z AUTO 00000KT 10SM SCT060 02/M01 A3008 RMK AO1 T00231011
KCGS 111326Z AUTO 00000KT 10SM OVC060 01/M01 A3008 RMK AO1 T00141010
KCGS 111306Z AUTO 00000KT 10SM OVC060 01/M02 A3008 RMK AO1 T00121016
KCGS 111246Z AUTO 00000KT 10SM OVC060 01/M02 A3008 RMK AO1 T00111019
KCGS 111226Z AUTO 00000KT 10SM OVC060 01/M02 A3007 RMK AO1 T00071019
KCGS 111206Z AUTO 00000KT 10SM OVC060 01/M02 A3007 RMK AO1 T00081020
KCGS 111146Z AUTO 00000KT 10SM OVC060 01/M02 A3006 RMK AO1 T00121023
KCGS 111126Z AUTO 00000KT 10SM OVC060 01/M02 A3006 RMK AO1 T00051017
KCGS 111106Z AUTO 00000KT 10SM OVC060 00/M02 A3006 RMK AO1 T00021017
KCGS 111046Z AUTO 00000KT 10SM OVC060 00/M02 A3006 RMK AO1 T00021023
KCGS 111026Z AUTO 00000KT 10SM OVC070 00/M02 A3005 RMK AO1 T00001023
KCGS 111006Z AUTO 00000KT 10SM OVC070 00/M03 A3005 RMK AO1 T00031030
KCGS 110946Z AUTO 00000KT 10SM OVC070 00/M03 A3004 RMK AO1 T00001026
KCGS 110926Z AUTO 00000KT 10SM OVC070 00/M02 A3004 RMK AO1 T00001022
KCGS 110906Z AUTO 00000KT 10SM OVC070 00/M02 A3004 RMK AO1 T00021024
KCGS 110846Z AUTO 00000KT 10SM SCT070 01/M03 A3003 RMK AO1 T00111034
KCGS 110826Z AUTO 00000KT 10SM SCT100 01/M02 A3003 RMK AO1 T00111025
KCGS 110806Z AUTO 00000KT 10SM OVC100 02/M03 A3004 RMK AO1 T00211035
KCGS 110746Z AUTO 00000KT 10SM SCT080 OVC100 02/M03 A3003 RMK AO1 T00201031
KCGS 110726Z AUTO 00000KT 10SM SCT060 BKN070 OVC100 02/M03 A3002 RMK AO1 T00211032
KCGS 110706Z AUTO 00000KT 10SM SCT055 BKN065 OVC075 03/M04 A3003 RMK AO1 T00261038
KCGS 110646Z AUTO 27003KT 10SM OVC055 03/M04 A3003 RMK AO1 T00261039
KCGS 110626Z AUTO 16006KT 10SM SCT050 OVC065 03/M04 A3002 RMK AO1 T00261039
KCGS 110606Z AUTO 19004KT 10SM SCT042 BKN048 OVC050 02/M03 A3004 RMK AO1 T00231031
KCGS 110546Z AUTO 00000KT 10SM SCT042 OVC050 02/M03 A3005 RMK AO1 T00231030
KCGS 110526Z AUTO 17003KT 10SM SCT048 OVC060 02/M03 A3005 RMK AO1 T00231029
KCGS 110506Z AUTO 18003KT 10SM SCT060 OVC070 02/M03 A3005 RMK AO1 T00231030
KCGS 110446Z AUTO 00000KT 10SM BKN080 OVC090 02/M03 A3005 RMK AO1 T00221030
KCGS 110426Z AUTO 00000KT 10SM SCT090 OVC110 02/M03 A3005 RMK AO1 T00211030
KCGS 110406Z AUTO 00000KT 10SM OVC110 02/M03 A3004 RMK AO1 T00221030
KCGS 110346Z AUTO 00000KT 10SM OVC110 02/M03 A3005 RMK AO1 T00221028
KCGS 110326Z AUTO 00000KT 10SM BKN110 02/M03 A3005 RMK AO1 T00201027
KCGS 110306Z AUTO 00000KT 10SM SCT110 02/M03 A3005 RMK AO1 T00171030
KCGS 110246Z AUTO 00000KT 10SM OVC110 02/M03 A3005 RMK AO1 T00201031
KCGS 110226Z AUTO 00000KT 10SM OVC100 02/M03 A3005 RMK AO1 T00201032
KCGS 110206Z AUTO 00000KT 10SM OVC110 02/M04 A3005 RMK AO1 T00171038
KCGS 110146Z AUTO 00000KT 10SM BKN110 01/M04 A3006 RMK AO1 T00121042
KCGS 110126Z AUTO 00000KT 10SM SCT110 M01/M04 A3006 RMK AO1 T10101040
KCGS 110106Z AUTO 00000KT 10SM SCT110 M01/M04 A3006 RMK AO1 T10111039
KCGS 110046Z AUTO 00000KT 10SM SCT110 M01/M04 A3006 RMK AO1 T10091038
KCGS 110026Z AUTO 00000KT 10SM CLR 00/M04 A3005 RMK AO1 T10031043
KCGS 110006Z AUTO 00000KT 10SM CLR 00/M04 A3005 RMK AO1 T10011042
KCGS 102346Z AUTO 00000KT 10SM CLR 02/M06 A3006 RMK AO1 T00221056
KCGS 102326Z AUTO 00000KT 10SM CLR 03/M06 A3005 RMK AO1 T00261058
KCGS 102306Z AUTO 00000KT 10SM CLR 03/M06 A3005 RMK AO1 T00271060
KCGS 102246Z AUTO 00000KT 10SM CLR 03/M06 A3005 RMK AO1 T00301061
KCGS 102226Z AUTO 00000KT 10SM CLR 03/M06 A3004 RMK AO1 T00321062
KCGS 102206Z AUTO 00000KT 10SM CLR 03/M06 A3004 RMK AO1 T00321063